sensor_id;sensor_type;location;lat;lon;timestamp;temperature;humidity
14031;DHT22;7090;49.436;8.490;2023-08-20T00:00:20;24.60;1.00
14031;DHT22;7090;49.436;8.490;2023-08-20T00:02:46;24.60;1.10
14031;DHT22;7090;49.436;8.490;2023-08-20T00:05:15;24.60;21.00
14031;DHT22;7090;49.436;8.490;2023-08-20T00:07:41;24.50;14.40
14031;DHT22;7090;49.436;8.490;2023-08-20T00:10:07;24.50;1.00
14031;DHT22;7090;49.436;8.490;2023-08-20T00:12:33;24.50;26.90
14031;DHT22;7090;49.436;8.490;2023-08-20T00:15:03;24.50;15.30
14031;DHT22;7090;49.436;8.490;2023-08-20T00:17:36;24.50;27.00
14031;DHT22;7090;49.436;8.490;2023-08-20T00:20:03;24.50;54.40
14031;DHT22;7090;49.436;8.490;2023-08-20T00:22:38;24.40;99.90
14031;DHT22;7090;49.436;8.490;2023-08-20T00:25:05;24.50;99.90
14031;DHT22;7090;49.436;8.490;2023-08-20T00:27:31;24.50;99.90
14031;DHT22;7090;49.436;8.490;2023-08-20T00:29:57;24.50;99.90
14031;DHT22;7090;49.436;8.490;2023-08-20T00:32:26;24.50;99.90
14031;DHT22;7090;49.436;8.490;2023-08-20T00:34:54;24.40;99.90
14031;DHT22;7090;49.436;8.490;2023-08-20T00:37:20;24.40;99.90
14031;DHT22;7090;49.436;8.490;2023-08-20T00:39:45;24.30;99.90
14031;DHT22;7090;49.436;8.490;2023-08-20T00:42:11;24.30;99.90
14031;DHT22;7090;49.436;8.490;2023-08-20T00:44:39;24.20;99.90
14031;DHT22;7090;49.436;8.490;2023-08-20T00:47:07;24.10;99.90
14031;DHT22;7090;49.436;8.490;2023-08-20T00:49:33;24.10;99.90
14031;DHT22;7090;49.436;8.490;2023-08-20T00:51:59;24.00;99.90
14031;DHT22;7090;49.436;8.490;2023-08-20T00:54:25;24.10;99.90
14031;DHT22;7090;49.436;8.490;2023-08-20T00:56:51;24.00;99.90
14031;DHT22;7090;49.436;8.490;2023-08-20T00:59:17;23.90;99.90
14031;DHT22;7090;49.436;8.490;2023-08-20T01:01:43;23.90;99.90
14031;DHT22;7090;49.436;8.490;2023-08-20T01:04:09;23.90;99.90
14031;DHT22;7090;49.436;8.490;2023-08-20T01:06:55;23.90;99.90
14031;DHT22;7090;49.436;8.490;2023-08-20T01:12:00;23.80;99.90
14031;DHT22;7090;49.436;8.490;2023-08-20T01:14:27;23.90;99.90
14031;DHT22;7090;49.436;8.490;2023-08-20T01:16:53;23.90;99.90
14031;DHT22;7090;49.436;8.490;2023-08-20T01:19:20;23.80;99.90
14031;DHT22;7090;49.436;8.490;2023-08-20T01:29:33;23.70;99.90
14031;DHT22;7090;49.436;8.490;2023-08-20T01:31:59;23.60;99.90
14031;DHT22;7090;49.436;8.490;2023-08-20T01:34:25;23.60;99.90
14031;DHT22;7090;49.436;8.490;2023-08-20T01:36:51;23.60;99.90
14031;DHT22;7090;49.436;8.490;2023-08-20T01:39:17;23.50;99.90
14031;DHT22;7090;49.436;8.490;2023-08-20T01:41:44;23.50;99.90
14031;DHT22;7090;49.436;8.490;2023-08-20T01:44:09;23.50;99.90
14031;DHT22;7090;49.436;8.490;2023-08-20T01:46:35;23.50;99.90
14031;DHT22;7090;49.436;8.490;2023-08-20T01:49:00;23.50;99.90
14031;DHT22;7090;49.436;8.490;2023-08-20T01:51:26;23.40;99.90
14031;DHT22;7090;49.436;8.490;2023-08-20T01:53:52;23.50;99.90
14031;DHT22;7090;49.436;8.490;2023-08-20T01:56:20;23.50;99.90
14031;DHT22;7090;49.436;8.490;2023-08-20T01:58:46;23.60;99.90
14031;DHT22;7090;49.436;8.490;2023-08-20T02:01:12;23.60;99.90
14031;DHT22;7090;49.436;8.490;2023-08-20T02:03:37;23.50;99.90
14031;DHT22;7090;49.436;8.490;2023-08-20T02:06:05;23.50;99.90
14031;DHT22;7090;49.436;8.490;2023-08-20T02:08:31;23.50;99.90
14031;DHT22;7090;49.436;8.490;2023-08-20T02:11:04;23.40;99.90
14031;DHT22;7090;49.436;8.490;2023-08-20T02:13:30;23.40;99.90
14031;DHT22;7090;49.436;8.490;2023-08-20T02:16:00;23.30;99.90
14031;DHT22;7090;49.436;8.490;2023-08-20T02:18:25;23.30;99.90
14031;DHT22;7090;49.436;8.490;2023-08-20T02:20:51;23.20;99.90
14031;DHT22;7090;49.436;8.490;2023-08-20T02:23:16;23.20;99.90
14031;DHT22;7090;49.436;8.490;2023-08-20T02:25:43;23.20;99.90
14031;DHT22;7090;49.436;8.490;2023-08-20T02:28:09;23.10;99.90
14031;DHT22;7090;49.436;8.490;2023-08-20T02:30:43;23.00;99.90
14031;DHT22;7090;49.436;8.490;2023-08-20T02:33:08;22.80;99.90
14031;DHT22;7090;49.436;8.490;2023-08-20T02:35:36;22.60;99.90
14031;DHT22;7090;49.436;8.490;2023-08-20T02:38:02;22.60;99.90
14031;DHT22;7090;49.436;8.490;2023-08-20T02:40:27;22.50;99.90
14031;DHT22;7090;49.436;8.490;2023-08-20T02:42:53;22.40;99.90
14031;DHT22;7090;49.436;8.490;2023-08-20T02:45:18;22.30;99.90
14031;DHT22;7090;49.436;8.490;2023-08-20T02:47:44;22.20;99.90
14031;DHT22;7090;49.436;8.490;2023-08-20T02:50:09;22.20;99.90
14031;DHT22;7090;49.436;8.490;2023-08-20T02:52:35;22.00;99.90
14031;DHT22;7090;49.436;8.490;2023-08-20T02:55:01;21.90;99.90
14031;DHT22;7090;49.436;8.490;2023-08-20T02:57:26;21.90;99.90
14031;DHT22;7090;49.436;8.490;2023-08-20T02:59:52;21.80;99.90
14031;DHT22;7090;49.436;8.490;2023-08-20T03:02:17;21.80;99.90
14031;DHT22;7090;49.436;8.490;2023-08-20T03:04:43;21.80;99.90
14031;DHT22;7090;49.436;8.490;2023-08-20T03:07:09;21.80;99.90
14031;DHT22;7090;49.436;8.490;2023-08-20T03:09:34;21.70;99.90
14031;DHT22;7090;49.436;8.490;2023-08-20T03:12:00;21.80;99.90
14031;DHT22;7090;49.436;8.490;2023-08-20T03:14:25;21.60;99.90
14031;DHT22;7090;49.436;8.490;2023-08-20T03:16:51;21.60;99.90
14031;DHT22;7090;49.436;8.490;2023-08-20T03:19:17;21.60;99.90
14031;DHT22;7090;49.436;8.490;2023-08-20T03:21:43;21.50;99.90
14031;DHT22;7090;49.436;8.490;2023-08-20T03:24:08;21.50;99.90
14031;DHT22;7090;49.436;8.490;2023-08-20T03:26:34;21.50;99.90
14031;DHT22;7090;49.436;8.490;2023-08-20T03:28:59;21.40;99.90
14031;DHT22;7090;49.436;8.490;2023-08-20T03:31:25;21.40;99.90
14031;DHT22;7090;49.436;8.490;2023-08-20T03:33:51;21.40;99.90
14031;DHT22;7090;49.436;8.490;2023-08-20T03:36:16;21.40;99.90
14031;DHT22;7090;49.436;8.490;2023-08-20T03:38:42;21.40;99.90
14031;DHT22;7090;49.436;8.490;2023-08-20T03:41:07;21.40;99.90
14031;DHT22;7090;49.436;8.490;2023-08-20T03:43:33;21.30;99.90
14031;DHT22;7090;49.436;8.490;2023-08-20T03:45:59;21.30;99.90
14031;DHT22;7090;49.436;8.490;2023-08-20T03:48:24;21.40;99.90
14031;DHT22;7090;49.436;8.490;2023-08-20T03:50:50;21.50;99.90
14031;DHT22;7090;49.436;8.490;2023-08-20T03:53:15;21.70;99.90
14031;DHT22;7090;49.436;8.490;2023-08-20T03:55:41;21.80;99.90
14031;DHT22;7090;49.436;8.490;2023-08-20T03:58:07;21.80;99.90
14031;DHT22;7090;49.436;8.490;2023-08-20T04:00:34;21.80;99.90
14031;DHT22;7090;49.436;8.490;2023-08-20T04:03:00;21.70;99.90
14031;DHT22;7090;49.436;8.490;2023-08-20T04:05:25;21.70;99.90
14031;DHT22;7090;49.436;8.490;2023-08-20T04:07:51;21.70;99.90
14031;DHT22;7090;49.436;8.490;2023-08-20T04:10:17;21.80;99.90
14031;DHT22;7090;49.436;8.490;2023-08-20T04:12:42;21.80;99.90
14031;DHT22;7090;49.436;8.490;2023-08-20T04:15:08;21.80;99.90
14031;DHT22;7090;49.436;8.490;2023-08-20T04:17:34;21.70;99.90
14031;DHT22;7090;49.436;8.490;2023-08-20T04:19:59;21.70;99.90
14031;DHT22;7090;49.436;8.490;2023-08-20T04:22:25;21.80;99.90
14031;DHT22;7090;49.436;8.490;2023-08-20T04:24:50;21.80;99.90
14031;DHT22;7090;49.436;8.490;2023-08-20T04:27:16;21.60;99.90
14031;DHT22;7090;49.436;8.490;2023-08-20T04:29:41;21.50;99.90
14031;DHT22;7090;49.436;8.490;2023-08-20T04:32:07;21.50;99.90
14031;DHT22;7090;49.436;8.490;2023-08-20T04:34:32;21.50;99.90
14031;DHT22;7090;49.436;8.490;2023-08-20T04:36:58;21.30;99.90
14031;DHT22;7090;49.436;8.490;2023-08-20T04:39:24;21.30;99.90
14031;DHT22;7090;49.436;8.490;2023-08-20T04:41:49;21.30;99.90
14031;DHT22;7090;49.436;8.490;2023-08-20T04:44:15;21.30;99.90
14031;DHT22;7090;49.436;8.490;2023-08-20T04:46:41;21.40;99.90
14031;DHT22;7090;49.436;8.490;2023-08-20T04:49:07;21.50;99.90
14031;DHT22;7090;49.436;8.490;2023-08-20T04:51:33;21.70;99.90
14031;DHT22;7090;49.436;8.490;2023-08-20T04:53:58;21.80;99.90
14031;DHT22;7090;49.436;8.490;2023-08-20T04:56:24;21.90;99.90
14031;DHT22;7090;49.436;8.490;2023-08-20T04:58:49;22.20;99.90
14031;DHT22;7090;49.436;8.490;2023-08-20T05:01:15;22.50;99.90
14031;DHT22;7090;49.436;8.490;2023-08-20T05:03:40;22.80;99.90
14031;DHT22;7090;49.436;8.490;2023-08-20T05:06:06;23.00;99.90
14031;DHT22;7090;49.436;8.490;2023-08-20T05:08:31;23.40;99.90
14031;DHT22;7090;49.436;8.490;2023-08-20T05:10:57;23.70;99.90
14031;DHT22;7090;49.436;8.490;2023-08-20T05:13:22;23.70;99.90
14031;DHT22;7090;49.436;8.490;2023-08-20T05:15:49;23.70;99.90
14031;DHT22;7090;49.436;8.490;2023-08-20T05:18:14;23.60;99.90
14031;DHT22;7090;49.436;8.490;2023-08-20T05:20:40;23.60;99.90
14031;DHT22;7090;49.436;8.490;2023-08-20T05:23:06;23.70;99.90
14031;DHT22;7090;49.436;8.490;2023-08-20T05:25:32;23.60;99.90
14031;DHT22;7090;49.436;8.490;2023-08-20T05:27:57;23.80;99.90
14031;DHT22;7090;49.436;8.490;2023-08-20T05:30:23;24.30;99.90
14031;DHT22;7090;49.436;8.490;2023-08-20T05:32:49;24.80;99.90
14031;DHT22;7090;49.436;8.490;2023-08-20T05:35:14;25.20;99.90
14031;DHT22;7090;49.436;8.490;2023-08-20T05:37:40;25.70;99.90
14031;DHT22;7090;49.436;8.490;2023-08-20T05:40:06;25.60;99.90
14031;DHT22;7090;49.436;8.490;2023-08-20T05:42:34;25.50;99.90
14031;DHT22;7090;49.436;8.490;2023-08-20T05:44:59;25.80;99.90
14031;DHT22;7090;49.436;8.490;2023-08-20T05:47:25;26.20;99.90
14031;DHT22;7090;49.436;8.490;2023-08-20T05:49:50;26.30;81.90
14031;DHT22;7090;49.436;8.490;2023-08-20T05:52:16;26.70;1.00
14031;DHT22;7090;49.436;8.490;2023-08-20T05:54:42;27.10;1.00
14031;DHT22;7090;49.436;8.490;2023-08-20T05:57:07;27.20;1.00
14031;DHT22;7090;49.436;8.490;2023-08-20T05:59:33;27.00;1.00
14031;DHT22;7090;49.436;8.490;2023-08-20T06:02:01;27.00;1.00
14031;DHT22;7090;49.436;8.490;2023-08-20T06:04:27;27.10;1.00
14031;DHT22;7090;49.436;8.490;2023-08-20T06:06:52;27.50;1.00
14031;DHT22;7090;49.436;8.490;2023-08-20T06:09:18;27.50;1.00
14031;DHT22;7090;49.436;8.490;2023-08-20T06:11:43;27.10;1.00
14031;DHT22;7090;49.436;8.490;2023-08-20T06:14:09;27.20;1.00
14031;DHT22;7090;49.436;8.490;2023-08-20T06:16:34;26.90;1.00
14031;DHT22;7090;49.436;8.490;2023-08-20T06:19:00;26.60;1.00
14031;DHT22;7090;49.436;8.490;2023-08-20T06:21:25;26.70;1.00
14031;DHT22;7090;49.436;8.490;2023-08-20T06:23:51;26.40;1.00
14031;DHT22;7090;49.436;8.490;2023-08-20T06:26:16;26.20;1.00
14031;DHT22;7090;49.436;8.490;2023-08-20T06:28:42;26.80;1.00
14031;DHT22;7090;49.436;8.490;2023-08-20T06:31:08;27.40;1.00
14031;DHT22;7090;49.436;8.490;2023-08-20T06:33:33;27.40;1.00
14031;DHT22;7090;49.436;8.490;2023-08-20T06:35:59;27.00;1.00
14031;DHT22;7090;49.436;8.490;2023-08-20T06:38:24;26.90;1.00
14031;DHT22;7090;49.436;8.490;2023-08-20T06:40:50;26.40;1.00
14031;DHT22;7090;49.436;8.490;2023-08-20T06:43:15;26.50;1.00
14031;DHT22;7090;49.436;8.490;2023-08-20T06:45:41;26.60;1.00
14031;DHT22;7090;49.436;8.490;2023-08-20T06:48:07;26.30;1.00
14031;DHT22;7090;49.436;8.490;2023-08-20T06:50:32;26.30;1.00
14031;DHT22;7090;49.436;8.490;2023-08-20T06:52:58;25.90;46.40
14031;DHT22;7090;49.436;8.490;2023-08-20T06:55:23;26.00;99.90
14031;DHT22;7090;49.436;8.490;2023-08-20T06:57:49;25.90;99.90
14031;DHT22;7090;49.436;8.490;2023-08-20T07:00:14;25.90;99.90
14031;DHT22;7090;49.436;8.490;2023-08-20T07:02:41;25.80;99.90
14031;DHT22;7090;49.436;8.490;2023-08-20T07:05:07;26.30;51.50
14031;DHT22;7090;49.436;8.490;2023-08-20T07:07:34;26.70;1.00
14031;DHT22;7090;49.436;8.490;2023-08-20T07:10:00;26.90;1.00
14031;DHT22;7090;49.436;8.490;2023-08-20T07:12:26;26.90;1.00
14031;DHT22;7090;49.436;8.490;2023-08-20T07:14:51;27.20;1.00
14031;DHT22;7090;49.436;8.490;2023-08-20T07:17:17;27.60;1.00
14031;DHT22;7090;49.436;8.490;2023-08-20T07:19:42;27.40;1.00
14031;DHT22;7090;49.436;8.490;2023-08-20T07:22:08;27.70;1.00
14031;DHT22;7090;49.436;8.490;2023-08-20T07:24:33;28.10;1.00
14031;DHT22;7090;49.436;8.490;2023-08-20T07:27:01;28.30;1.00
14031;DHT22;7090;49.436;8.490;2023-08-20T07:29:29;28.40;99.90
14031;DHT22;7090;49.436;8.490;2023-08-20T07:31:56;28.30;99.90
14031;DHT22;7090;49.436;8.490;2023-08-20T07:34:21;28.60;99.90
14031;DHT22;7090;49.436;8.490;2023-08-20T07:36:47;29.00;99.90
14031;DHT22;7090;49.436;8.490;2023-08-20T07:39:13;29.00;99.90
14031;DHT22;7090;49.436;8.490;2023-08-20T07:41:40;29.30;99.90
14031;DHT22;7090;49.436;8.490;2023-08-20T07:44:06;29.50;99.90
14031;DHT22;7090;49.436;8.490;2023-08-20T07:46:31;30.10;99.90
14031;DHT22;7090;49.436;8.490;2023-08-20T07:48:57;30.50;99.90
14031;DHT22;7090;49.436;8.490;2023-08-20T07:51:23;30.40;99.20
14031;DHT22;7090;49.436;8.490;2023-08-20T07:53:48;30.40;24.30
14031;DHT22;7090;49.436;8.490;2023-08-20T07:56:14;30.70;99.90
14031;DHT22;7090;49.436;8.490;2023-08-20T07:58:39;31.30;40.20
14031;DHT22;7090;49.436;8.490;2023-08-20T08:01:05;31.60;1.00
14031;DHT22;7090;49.436;8.490;2023-08-20T08:03:31;31.80;1.00
14031;DHT22;7090;49.436;8.490;2023-08-20T08:05:56;32.30;1.00
14031;DHT22;7090;49.436;8.490;2023-08-20T08:08:22;32.70;1.00
14031;DHT22;7090;49.436;8.490;2023-08-20T08:10:48;32.40;99.90
14031;DHT22;7090;49.436;8.490;2023-08-20T08:13:15;32.20;99.90
14031;DHT22;7090;49.436;8.490;2023-08-20T08:15:41;32.40;99.90
14031;DHT22;7090;49.436;8.490;2023-08-20T08:18:07;32.30;99.90
14031;DHT22;7090;49.436;8.490;2023-08-20T08:20:34;32.70;1.00
14031;DHT22;7090;49.436;8.490;2023-08-20T08:23:00;33.10;1.00
14031;DHT22;7090;49.436;8.490;2023-08-20T08:25:26;33.40;1.00
14031;DHT22;7090;49.436;8.490;2023-08-20T08:27:51;33.70;1.00
14031;DHT22;7090;49.436;8.490;2023-08-20T08:30:17;34.10;1.00
14031;DHT22;7090;49.436;8.490;2023-08-20T08:32:43;34.10;1.00
14031;DHT22;7090;49.436;8.490;2023-08-20T08:35:09;33.80;1.00
14031;DHT22;7090;49.436;8.490;2023-08-20T08:37:34;33.60;1.00
14031;DHT22;7090;49.436;8.490;2023-08-20T08:40:00;34.00;1.00
14031;DHT22;7090;49.436;8.490;2023-08-20T08:42:25;33.90;1.00
14031;DHT22;7090;49.436;8.490;2023-08-20T08:44:51;34.20;1.00
14031;DHT22;7090;49.436;8.490;2023-08-20T08:47:18;33.90;1.00
14031;DHT22;7090;49.436;8.490;2023-08-20T08:49:48;34.10;1.00
14031;DHT22;7090;49.436;8.490;2023-08-20T08:52:14;34.10;1.00
14031;DHT22;7090;49.436;8.490;2023-08-20T08:54:41;34.50;1.00
14031;DHT22;7090;49.436;8.490;2023-08-20T08:57:06;34.80;1.00
14031;DHT22;7090;49.436;8.490;2023-08-20T08:59:32;34.90;1.00
14031;DHT22;7090;49.436;8.490;2023-08-20T09:01:58;35.00;1.00
14031;DHT22;7090;49.436;8.490;2023-08-20T09:04:23;34.90;1.00
14031;DHT22;7090;49.436;8.490;2023-08-20T09:06:51;35.00;1.00
14031;DHT22;7090;49.436;8.490;2023-08-20T09:09:18;35.40;1.00
14031;DHT22;7090;49.436;8.490;2023-08-20T09:11:44;33.50;1.00
14031;DHT22;7090;49.436;8.490;2023-08-20T09:14:24;33.70;1.00
14031;DHT22;7090;49.436;8.490;2023-08-20T09:17:00;34.90;99.90
14031;DHT22;7090;49.436;8.490;2023-08-20T09:19:31;35.60;1.00
14031;DHT22;7090;49.436;8.490;2023-08-20T09:22:00;35.70;1.00
14031;DHT22;7090;49.436;8.490;2023-08-20T09:24:51;35.60;1.00
14031;DHT22;7090;49.436;8.490;2023-08-20T09:27:13;35.50;1.00
14031;DHT22;7090;49.436;8.490;2023-08-20T09:29:47;35.40;1.00
14031;DHT22;7090;49.436;8.490;2023-08-20T09:32:18;35.50;1.00
14031;DHT22;7090;49.436;8.490;2023-08-20T09:34:44;35.90;1.00
14031;DHT22;7090;49.436;8.490;2023-08-20T09:37:11;36.50;1.00
14031;DHT22;7090;49.436;8.490;2023-08-20T09:39:37;36.30;1.00
14031;DHT22;7090;49.436;8.490;2023-08-20T09:42:04;36.70;1.00
14031;DHT22;7090;49.436;8.490;2023-08-20T09:44:33;36.70;1.00
14031;DHT22;7090;49.436;8.490;2023-08-20T09:47:05;36.50;1.00
14031;DHT22;7090;49.436;8.490;2023-08-20T09:49:35;36.10;1.00
14031;DHT22;7090;49.436;8.490;2023-08-20T09:52:04;36.10;99.90
14031;DHT22;7090;49.436;8.490;2023-08-20T09:57:38;37.20;99.90
14031;DHT22;7090;49.436;8.490;2023-08-20T10:00:06;36.30;99.90
14031;DHT22;7090;49.436;8.490;2023-08-20T10:02:35;36.50;99.90
14031;DHT22;7090;49.436;8.490;2023-08-20T10:05:01;36.60;99.90
14031;DHT22;7090;49.436;8.490;2023-08-20T10:07:29;36.60;99.90
14031;DHT22;7090;49.436;8.490;2023-08-20T10:09:59;36.10;99.90
14031;DHT22;7090;49.436;8.490;2023-08-20T10:12:29;35.40;99.90
14031;DHT22;7090;49.436;8.490;2023-08-20T10:14:59;35.60;99.90
14031;DHT22;7090;49.436;8.490;2023-08-20T10:17:25;34.50;99.90
14031;DHT22;7090;49.436;8.490;2023-08-20T10:19:57;35.50;99.90
14031;DHT22;7090;49.436;8.490;2023-08-20T10:22:38;35.90;99.90
14031;DHT22;7090;49.436;8.490;2023-08-20T10:25:08;36.90;99.90
14031;DHT22;7090;49.436;8.490;2023-08-20T10:27:36;35.70;99.90
14031;DHT22;7090;49.436;8.490;2023-08-20T10:30:11;34.90;99.90
14031;DHT22;7090;49.436;8.490;2023-08-20T10:32:49;35.50;99.90
14031;DHT22;7090;49.436;8.490;2023-08-20T10:35:22;36.40;99.90
14031;DHT22;7090;49.436;8.490;2023-08-20T10:38:11;36.50;99.90
14031;DHT22;7090;49.436;8.490;2023-08-20T10:40:53;36.70;99.90
14031;DHT22;7090;49.436;8.490;2023-08-20T10:48:39;36.90;99.90
14031;DHT22;7090;49.436;8.490;2023-08-20T10:51:11;37.60;99.90
14031;DHT22;7090;49.436;8.490;2023-08-20T10:53:38;38.20;99.90
14031;DHT22;7090;49.436;8.490;2023-08-20T10:56:09;39.00;99.90
14031;DHT22;7090;49.436;8.490;2023-08-20T10:58:37;37.20;99.90
14031;DHT22;7090;49.436;8.490;2023-08-20T11:03:41;35.50;99.90
14031;DHT22;7090;49.436;8.490;2023-08-20T11:06:07;33.80;55.30
14031;DHT22;7090;49.436;8.490;2023-08-20T11:08:33;33.40;1.00
14031;DHT22;7090;49.436;8.490;2023-08-20T11:10:59;34.90;1.00
14031;DHT22;7090;49.436;8.490;2023-08-20T11:13:25;36.50;1.00
14031;DHT22;7090;49.436;8.490;2023-08-20T11:15:51;37.00;1.00
14031;DHT22;7090;49.436;8.490;2023-08-20T11:18:17;36.70;1.00
14031;DHT22;7090;49.436;8.490;2023-08-20T11:20:43;34.80;1.00
14031;DHT22;7090;49.436;8.490;2023-08-20T11:23:08;34.60;1.00
14031;DHT22;7090;49.436;8.490;2023-08-20T11:25:41;34.70;1.00
14031;DHT22;7090;49.436;8.490;2023-08-20T11:28:07;35.60;1.00
14031;DHT22;7090;49.436;8.490;2023-08-20T11:30:33;36.60;1.00
14031;DHT22;7090;49.436;8.490;2023-08-20T11:32:58;37.40;1.00
14031;DHT22;7090;49.436;8.490;2023-08-20T11:35:25;37.60;1.00
14031;DHT22;7090;49.436;8.490;2023-08-20T11:37:52;37.80;4.10
14031;DHT22;7090;49.436;8.490;2023-08-20T11:40:20;38.00;2.30
14031;DHT22;7090;49.436;8.490;2023-08-20T11:42:47;38.80;99.90
14031;DHT22;7090;49.436;8.490;2023-08-20T11:45:13;38.50;88.90
14031;DHT22;7090;49.436;8.490;2023-08-20T11:47:40;38.60;99.90
14031;DHT22;7090;49.436;8.490;2023-08-20T11:50:07;39.30;99.90
14031;DHT22;7090;49.436;8.490;2023-08-20T11:52:33;38.60;99.90
14031;DHT22;7090;49.436;8.490;2023-08-20T11:54:59;38.90;99.90
14031;DHT22;7090;49.436;8.490;2023-08-20T11:57:26;38.70;99.90
14031;DHT22;7090;49.436;8.490;2023-08-20T11:59:51;38.90;99.90
14031;DHT22;7090;49.436;8.490;2023-08-20T12:02:25;38.60;99.90
14031;DHT22;7090;49.436;8.490;2023-08-20T12:04:51;38.90;99.90
14031;DHT22;7090;49.436;8.490;2023-08-20T12:07:17;39.30;68.30
14031;DHT22;7090;49.436;8.490;2023-08-20T12:09:42;39.60;99.90
14031;DHT22;7090;49.436;8.490;2023-08-20T12:12:08;40.40;63.90
14031;DHT22;7090;49.436;8.490;2023-08-20T12:14:35;39.40;99.90
14031;DHT22;7090;49.436;8.490;2023-08-20T12:17:00;39.30;41.20
14031;DHT22;7090;49.436;8.490;2023-08-20T12:19:26;39.70;1.00
14031;DHT22;7090;49.436;8.490;2023-08-20T12:21:52;40.10;14.70
14031;DHT22;7090;49.436;8.490;2023-08-20T12:24:17;39.70;1.00
14031;DHT22;7090;49.436;8.490;2023-08-20T12:26:44;39.90;1.00
14031;DHT22;7090;49.436;8.490;2023-08-20T12:29:10;39.70;1.00
14031;DHT22;7090;49.436;8.490;2023-08-20T12:31:36;39.60;1.00
14031;DHT22;7090;49.436;8.490;2023-08-20T12:34:02;38.90;1.00
14031;DHT22;7090;49.436;8.490;2023-08-20T12:36:28;39.10;1.00
14031;DHT22;7090;49.436;8.490;2023-08-20T12:38:54;39.10;1.00
14031;DHT22;7090;49.436;8.490;2023-08-20T12:41:20;38.80;1.00
14031;DHT22;7090;49.436;8.490;2023-08-20T12:43:45;38.40;1.00
14031;DHT22;7090;49.436;8.490;2023-08-20T12:46:11;38.20;1.00
14031;DHT22;7090;49.436;8.490;2023-08-20T12:48:38;38.40;1.00
14031;DHT22;7090;49.436;8.490;2023-08-20T12:51:03;38.30;1.00
14031;DHT22;7090;49.436;8.490;2023-08-20T12:53:29;38.10;1.00
14031;DHT22;7090;49.436;8.490;2023-08-20T12:55:55;38.10;1.00
14031;DHT22;7090;49.436;8.490;2023-08-20T12:58:20;38.50;1.00
14031;DHT22;7090;49.436;8.490;2023-08-20T13:00:46;38.70;1.00
14031;DHT22;7090;49.436;8.490;2023-08-20T13:03:12;38.80;1.00
14031;DHT22;7090;49.436;8.490;2023-08-20T13:05:38;39.10;1.00
14031;DHT22;7090;49.436;8.490;2023-08-20T13:08:04;39.00;1.00
14031;DHT22;7090;49.436;8.490;2023-08-20T13:10:30;39.30;1.00
14031;DHT22;7090;49.436;8.490;2023-08-20T13:13:00;39.40;1.00
14031;DHT22;7090;49.436;8.490;2023-08-20T13:15:26;39.20;1.00
14031;DHT22;7090;49.436;8.490;2023-08-20T13:17:52;39.20;1.00
14031;DHT22;7090;49.436;8.490;2023-08-20T13:20:18;39.20;1.00
14031;DHT22;7090;49.436;8.490;2023-08-20T13:22:48;39.10;1.00
14031;DHT22;7090;49.436;8.490;2023-08-20T13:25:14;39.00;1.00
14031;DHT22;7090;49.436;8.490;2023-08-20T13:27:40;39.00;1.00
14031;DHT22;7090;49.436;8.490;2023-08-20T13:30:07;39.10;1.00
14031;DHT22;7090;49.436;8.490;2023-08-20T13:32:34;39.40;1.00
14031;DHT22;7090;49.436;8.490;2023-08-20T13:35:00;39.40;1.00
14031;DHT22;7090;49.436;8.490;2023-08-20T13:37:25;39.00;1.00
14031;DHT22;7090;49.436;8.490;2023-08-20T13:39:51;38.30;1.00
14031;DHT22;7090;49.436;8.490;2023-08-20T13:42:16;37.90;1.00
14031;DHT22;7090;49.436;8.490;2023-08-20T13:44:42;37.70;1.00
14031;DHT22;7090;49.436;8.490;2023-08-20T13:47:08;38.30;99.90
14031;DHT22;7090;49.436;8.490;2023-08-20T13:49:34;38.10;99.90
14031;DHT22;7090;49.436;8.490;2023-08-20T13:51:59;38.50;99.90
14031;DHT22;7090;49.436;8.490;2023-08-20T13:54:25;38.50;99.90
14031;DHT22;7090;49.436;8.490;2023-08-20T13:56:51;38.60;99.90
14031;DHT22;7090;49.436;8.490;2023-08-20T13:59:17;38.70;99.90
14031;DHT22;7090;49.436;8.490;2023-08-20T14:01:42;38.70;1.00
14031;DHT22;7090;49.436;8.490;2023-08-20T14:04:08;38.80;1.00
14031;DHT22;7090;49.436;8.490;2023-08-20T14:06:33;38.80;1.00
14031;DHT22;7090;49.436;8.490;2023-08-20T14:08:59;38.80;1.00
14031;DHT22;7090;49.436;8.490;2023-08-20T14:11:24;39.00;1.00
14031;DHT22;7090;49.436;8.490;2023-08-20T14:13:51;39.50;1.00
14031;DHT22;7090;49.436;8.490;2023-08-20T14:16:16;39.30;1.00
14031;DHT22;7090;49.436;8.490;2023-08-20T14:18:42;38.90;99.90
14031;DHT22;7090;49.436;8.490;2023-08-20T14:21:08;38.60;99.90
14031;DHT22;7090;49.436;8.490;2023-08-20T14:23:33;38.40;99.90
14031;DHT22;7090;49.436;8.490;2023-08-20T14:26:00;38.60;99.90
14031;DHT22;7090;49.436;8.490;2023-08-20T14:28:26;38.50;99.90
14031;DHT22;7090;49.436;8.490;2023-08-20T14:30:51;38.80;1.00
14031;DHT22;7090;49.436;8.490;2023-08-20T14:33:19;38.60;1.00
14031;DHT22;7090;49.436;8.490;2023-08-20T14:35:45;38.80;1.00
14031;DHT22;7090;49.436;8.490;2023-08-20T14:38:11;39.10;99.90
14031;DHT22;7090;49.436;8.490;2023-08-20T14:40:37;38.40;1.00
14031;DHT22;7090;49.436;8.490;2023-08-20T14:43:07;39.20;1.00
14031;DHT22;7090;49.436;8.490;2023-08-20T14:45:32;39.20;1.00
14031;DHT22;7090;49.436;8.490;2023-08-20T14:47:58;39.40;1.00
14031;DHT22;7090;49.436;8.490;2023-08-20T14:50:24;40.00;1.00
14031;DHT22;7090;49.436;8.490;2023-08-20T14:52:49;40.30;1.00
14031;DHT22;7090;49.436;8.490;2023-08-20T14:55:20;40.60;1.00
14031;DHT22;7090;49.436;8.490;2023-08-20T14:57:46;40.50;1.00
14031;DHT22;7090;49.436;8.490;2023-08-20T15:00:13;39.90;1.00
14031;DHT22;7090;49.436;8.490;2023-08-20T15:02:43;39.20;1.00
14031;DHT22;7090;49.436;8.490;2023-08-20T15:05:10;39.00;1.00
14031;DHT22;7090;49.436;8.490;2023-08-20T15:07:36;39.20;1.00
14031;DHT22;7090;49.436;8.490;2023-08-20T15:10:03;39.20;1.00
14031;DHT22;7090;49.436;8.490;2023-08-20T15:12:30;39.50;1.00
14031;DHT22;7090;49.436;8.490;2023-08-20T15:14:56;39.80;1.00
14031;DHT22;7090;49.436;8.490;2023-08-20T15:17:22;39.40;1.00
14031;DHT22;7090;49.436;8.490;2023-08-20T15:19:47;39.20;1.00
14031;DHT22;7090;49.436;8.490;2023-08-20T15:22:14;38.90;1.00
14031;DHT22;7090;49.436;8.490;2023-08-20T15:24:39;38.40;1.00
14031;DHT22;7090;49.436;8.490;2023-08-20T15:27:05;37.90;1.00
14031;DHT22;7090;49.436;8.490;2023-08-20T15:29:31;37.20;1.00
14031;DHT22;7090;49.436;8.490;2023-08-20T15:31:56;36.70;1.00
14031;DHT22;7090;49.436;8.490;2023-08-20T15:34:22;36.50;99.90
14031;DHT22;7090;49.436;8.490;2023-08-20T15:36:49;36.40;99.90
14031;DHT22;7090;49.436;8.490;2023-08-20T15:39:15;36.30;99.90
14031;DHT22;7090;49.436;8.490;2023-08-20T15:41:44;36.20;92.00
14031;DHT22;7090;49.436;8.490;2023-08-20T15:44:11;35.80;1.00
14031;DHT22;7090;49.436;8.490;2023-08-20T15:46:37;35.70;1.00
14031;DHT22;7090;49.436;8.490;2023-08-20T15:49:03;35.50;1.00
14031;DHT22;7090;49.436;8.490;2023-08-20T15:51:29;35.60;1.00
14031;DHT22;7090;49.436;8.490;2023-08-20T15:53:55;35.70;1.00
14031;DHT22;7090;49.436;8.490;2023-08-20T15:56:21;35.90;34.00
14031;DHT22;7090;49.436;8.490;2023-08-20T15:58:46;36.10;99.90
14031;DHT22;7090;49.436;8.490;2023-08-20T16:01:13;36.00;23.30
14031;DHT22;7090;49.436;8.490;2023-08-20T16:03:39;36.00;99.90
14031;DHT22;7090;49.436;8.490;2023-08-20T16:06:05;35.80;1.00
14031;DHT22;7090;49.436;8.490;2023-08-20T16:08:31;36.10;1.00